LIBDLGTS

Guest
Details From LIBD - Bari Palese Macchie
To LGTS - Thessalonik Makedonia
Flight Number -
Tags generated
Created
Modified
Stats Distance 288 nm / 534 km
Max Altitude 35,000 ft / 10,668 m
Waypoints 6
Social Downloads 0
Likes 0
Share VATSIM

Download

Looking for another format? Having issues loading an existing format? Contact us
Advertisement - Login to hide

Notes

Basic altitude profile: - Ascent Rate: 2500ft/min - Ascent Speed: 250kts - Cruise Altitude: 35000ft - Cruise Speed: 420kts - Descent Rate: 1500ft/min - Descent Speed: 250kts

Route

LIBD GOKEL UM603 PINDO LGTS

ID Type Via Altitude Latitude Longitude Leg Dist Tot Dist Heading (true) Name
O LIBD APT - 0 ft / 0 m 41.13787˚ 16.75832˚ - 0 nm - Bari Palese Macchie
GOKEL FIX - 35,000 ft / 10,668 m 40.59833˚ 19.00000˚ 106 nm 106 nm 107° / 108° -
OVVER FIX UM603 (AWY-HI) 27,700 ft / 8,443 m 40.53389˚ 20.03250˚ 47 nm 154 nm 94° / 95° -
ADDER FIX UM603 (AWY-HI) 27,500 ft / 8,382 m 40.52111˚ 20.31278˚ 12 nm 166 nm 93° / 94° -
PINDO FIX UM603 (AWY-HI) 27,500 ft / 8,382 m 40.48083˚ 20.95583˚ 29 nm 196 nm 95° / 95° -
O LGTS APT - 0 ft / 0 m 40.51952˚ 22.97202˚ 92 nm 288 nm 88° / 89° Thessalonik Makedonia

Altitude Profile

Advertisement - Login to hide

Weather


0- 5 10 15 20 25 30 35+ Temperature / ° C

Clouds and Precipitation
Forecast for 2017-12-12 06:00 UTC. Updated an hour ago

Ground ~20,000 ft ~40,000 ft Winds

LIBD

Details ICAO LIBD (BRI)
Name Bari Palese Macchie
Region Italy
Timezone Europe/Rome (UTC+1.0)
Stats Elevation 177 ft / 54 m (AMSL)
Location 41.137865° 16.758318°
Runways 1
Magnetic Variation 3.736° E

METAR

LIBD 120620Z VRB03KT CAVOK 11/10 Q1015

Decode

TAF

TAF LIBD 120500Z 1206/1306 17014KT 9999 SCT030= TAF LIBP 120500Z 1206/1306 15012KT 9999 FEW040 BKN070

Decode

Departure Runways

ID Width Length Bearing (true) Bearing (mag) Surface Threshold Offset Overrun Length
07 148 ft / 45 m 9,262 ft / 2,823 m 69.39° 65.65° Asphalt 1,257 ft / 383 m 0 ft / 0 m
25 148 ft / 45 m 9,262 ft / 2,823 m 249.42° 245.68° Asphalt 0 ft / 0 m 194 ft / 59 m

LGTS

Details ICAO LGTS (SKG)
Name Thessalonik Makedonia
Region Greece
Timezone Europe/Athens (UTC+2.0)
Stats Elevation 22 ft / 7 m (AMSL)
Location 40.519522° 22.972017°
Runways 2
Magnetic Variation 4.622° E

METAR

LGTS 120620Z VRB02KT 8000 4000S BR SCT010 02/01 Q1022 NOSIG

Decode

TAF

TAF AMD LGTS 120500Z 1206/1306 VRB03KT CAVOK PROB40 TEMPO 1206/1208 4000 BR SCT008 BECMG 1222/1224 5000 BR SCT008 PROB40 TEMPO 1300/1306 0500 FG BKN005

Decode

Destination Runways

ID Width Length Bearing (true) Bearing (mag) Surface Threshold Offset Overrun Length
10 164 ft / 50 m 7,990 ft / 2,435 m 103.95° 99.33° Asphalt 0 ft / 0 m 150 ft / 46 m
16 197 ft / 60 m 7,927 ft / 2,416 m 166.35° 161.73° Asphalt 0 ft / 0 m 200 ft / 61 m
28 164 ft / 50 m 7,990 ft / 2,435 m 283.97° 279.35° Asphalt 0 ft / 0 m 150 ft / 46 m
34 197 ft / 60 m 7,927 ft / 2,416 m 346.36° 341.74° Asphalt 0 ft / 0 m 200 ft / 61 m

Approach Navaids

Runway Type Ident Frequency Range Bearing (true) Bearing (mag) Slope Elevation
10 Localiser IMAK 109.50 MHz 18 nm / 33 km 103.99° 99.36° - 19 ft / 6 m (AMSL)
10 Glidescope IMAK 109.50 MHz 10 nm / 19 km 103.96° 99.34° 3.00° 8 ft / 2 m (AMSL)
10 DME IMAK 109.50 MHz 18 nm / 33 km - - - 8 ft / 2 m (AMSL)
16 Localiser ITSL 110.30 MHz 18 nm / 33 km 166.62° 162.00° - 16 ft / 5 m (AMSL)
16 Glidescope ITSL 110.30 MHz 10 nm / 19 km 166.35° 161.73° 3.00° 16 ft / 5 m (AMSL)
16 DME ITSL 110.30 MHz 18 nm / 33 km - - - 16 ft / 5 m (AMSL)

Popular Alternatives